Time;durP1;ratioP1;P1;durP2;ratioP2;P2;SDS_P1;SDS_P2;PMS_P1;PMS_P2;Temp;Humidity;BMP_temperature;BMP_pressure;BME280_temperature;BME280_humidity;BME280_pressure;Samples;Min_cycle;Max_cycle;Signal;HPM_P1;HPM_P2
2022/09/14 00:00:00;;;;;;;7.47;2.20;;;16.40;99.90;;;;;;7370002;32;20248;-63
2022/09/14 00:04:05;;;;;;;6.00;1.83;;;16.40;99.90;;;;;;7357901;32;20126;-62
2022/09/14 00:08:06;;;;;;;4.10;1.83;;;16.30;99.90;;;;;;7363994;32;20130;-61
2022/09/14 00:12:09;;;;;;;5.95;2.00;;;16.30;99.90;;;;;;7372113;32;20195;-63
2022/09/14 00:16:25;;;;;;;6.32;2.80;;;16.30;99.90;;;;;;7369665;32;20096;-62
2022/09/14 00:20:29;;;;;;;9.07;2.53;;;16.20;99.90;;;;;;7363343;32;20420;-64
2022/09/14 00:24:31;;;;;;;7.93;2.60;;;16.20;99.90;;;;;;7362709;32;20222;-63
2022/09/14 00:28:40;;;;;;;10.15;2.80;;;16.10;99.90;;;;;;7366920;32;20190;-63
2022/09/14 00:32:42;;;;;;;4.90;1.77;;;16.10;99.90;;;;;;7357789;32;20100;-62
2022/09/14 00:36:46;;;;;;;5.43;2.05;;;16.00;99.90;;;;;;7361876;32;20799;-62
2022/09/14 00:41:01;;;;;;;6.05;1.95;;;15.90;99.90;;;;;;7366759;32;20129;-63
2022/09/14 00:45:18;;;;;;;5.55;2.47;;;15.90;99.90;;;;;;7364917;32;20476;-62
2022/09/14 00:49:33;;;;;;;6.50;1.65;;;15.90;99.90;;;;;;7362393;32;20106;-62
2022/09/14 00:53:35;;;;;;;7.32;2.05;;;15.80;99.90;;;;;;7364998;32;20247;-63
2022/09/14 00:57:46;;;;;;;9.82;2.22;;;15.90;99.90;;;;;;7365691;32;20106;-63
2022/09/14 01:01:48;;;;;;;8.23;2.47;;;15.80;99.90;;;;;;7362481;32;20148;-63
2022/09/14 01:06:15;;;;;;;8.95;2.00;;;15.80;99.90;;;;;;7363938;32;20697;-63
2022/09/14 01:10:40;;;;;;;5.45;2.17;;;15.70;99.90;;;;;;7365049;32;20119;-64
2022/09/14 01:14:56;;;;;;;6.18;2.30;;;15.70;99.90;;;;;;7363343;32;20102;-63
2022/09/14 01:19:09;;;;;;;6.82;1.85;;;15.70;99.90;;;;;;7374661;32;20102;-62
2022/09/14 01:23:23;;;;;;;6.50;2.40;;;15.70;99.90;;;;;;7366797;32;20107;-63
2022/09/14 01:27:33;;;;;;;10.32;2.10;;;15.60;99.90;;;;;;7362676;32;20119;-63
2022/09/14 01:31:51;;;;;;;8.95;1.95;;;15.50;99.90;;;;;;7356992;32;20510;-62
2022/09/14 01:35:57;;;;;;;10.50;2.37;;;15.50;99.90;;;;;;7365482;32;20214;-62
2022/09/14 01:40:09;;;;;;;7.65;2.60;;;15.50;99.90;;;;;;7363084;32;20903;-63
2022/09/14 01:44:20;;;;;;;8.02;2.30;;;15.50;99.90;;;;;;7358706;32;20131;-62
2022/09/14 01:48:31;;;;;;;7.10;2.17;;;15.40;99.90;;;;;;7363908;32;20122;-62
2022/09/14 01:52:43;;;;;;;8.27;2.47;;;15.50;99.90;;;;;;7366936;32;20198;-63
2022/09/14 01:56:58;;;;;;;8.30;2.00;;;15.50;99.90;;;;;;7360114;32;20099;-62
2022/09/14 02:01:02;;;;;;;11.93;2.47;;;15.40;99.90;;;;;;7365215;32;20452;-62
2022/09/14 02:05:11;;;;;;;6.68;2.12;;;15.50;99.90;;;;;;7361299;32;20190;-62
2022/09/14 02:09:25;;;;;;;8.10;2.60;;;15.50;99.90;;;;;;7363325;32;20261;-62
2022/09/14 02:13:27;;;;;;;4.75;2.12;;;15.60;99.90;;;;;;7362041;32;20108;-62
2022/09/14 02:17:30;;;;;;;7.22;2.20;;;15.60;99.90;;;;;;7357007;32;20111;-63
2022/09/14 02:21:32;;;;;;;4.28;1.87;;;15.50;99.90;;;;;;7356776;32;20473;-62
2022/09/14 02:25:35;;;;;;;4.60;2.40;;;15.50;99.90;;;;;;7358752;32;20253;-62
2022/09/14 02:29:37;;;;;;;11.82;2.80;;;15.40;99.90;;;;;;7364026;32;20496;-63
2022/09/14 02:33:47;;;;;;;11.27;2.97;;;15.40;99.90;;;;;;7362326;32;20649;-63
2022/09/14 02:38:13;;;;;;;9.32;2.97;;;15.30;99.90;;;;;;7358690;32;20154;-63
2022/09/14 02:42:45;;;;;;;7.87;3.03;;;15.30;99.90;;;;;;7363534;32;20130;-62
2022/09/14 02:46:54;;;;;;;13.73;3.50;;;15.30;99.90;;;;;;7361201;32;20150;-62
2022/09/14 02:51:25;;;;;;;13.10;4.00;;;15.30;99.90;;;;;;7368506;32;20959;-62
2022/09/14 02:55:33;;;;;;;8.32;3.83;;;15.20;99.90;;;;;;7364283;32;20479;-62
2022/09/14 02:59:35;;;;;;;10.48;4.25;;;15.10;99.90;;;;;;7369166;32;20241;-62
2022/09/14 03:03:36;;;;;;;9.38;3.72;;;15.10;99.90;;;;;;7367913;32;20133;-62
2022/09/14 03:07:39;;;;;;;9.93;4.25;;;15.00;99.90;;;;;;7362331;32;20146;-62
2022/09/14 03:11:40;;;;;;;9.07;4.15;;;14.90;99.90;;;;;;7369596;32;20515;-63
2022/09/14 03:15:43;;;;;;;10.50;4.60;;;14.90;99.90;;;;;;7365075;32;20099;-63
2022/09/14 03:19:45;;;;;;;7.97;5.05;;;14.90;99.90;;;;;;7368621;32;20178;-63
2022/09/14 03:23:49;;;;;;;11.32;4.75;;;14.80;99.90;;;;;;7367404;32;20107;-62
2022/09/14 03:27:54;;;;;;;12.00;5.43;;;14.80;99.90;;;;;;7365399;32;20106;-63
2022/09/14 03:31:56;;;;;;;11.05;5.07;;;14.80;99.90;;;;;;7362805;32;20784;-63
2022/09/14 03:35:59;;;;;;;13.60;5.15;;;14.80;99.90;;;;;;7369132;32;20652;-63
2022/09/14 03:40:00;;;;;;;13.25;5.65;;;14.70;99.90;;;;;;7363412;32;20130;-63
2022/09/14 03:44:02;;;;;;;8.80;5.25;;;14.60;99.90;;;;;;7366382;32;20221;-62
2022/09/14 03:48:04;;;;;;;12.15;5.85;;;14.60;99.90;;;;;;7360001;32;20201;-63
2022/09/14 03:52:06;;;;;;;10.30;4.68;;;14.60;99.90;;;;;;7368128;32;20758;-63
2022/09/14 03:56:11;;;;;;;10.52;5.07;;;14.50;99.90;;;;;;7370752;32;20137;-63
2022/09/14 04:00:13;;;;;;;11.05;5.20;;;14.50;99.90;;;;;;7362606;32;20117;-63
2022/09/14 04:04:15;;;;;;;13.10;5.43;;;14.50;99.90;;;;;;7370680;32;20115;-63
2022/09/14 04:08:17;;;;;;;12.15;4.68;;;14.60;99.90;;;;;;7361589;32;20134;-64
2022/09/14 04:12:18;;;;;;;14.15;5.40;;;14.50;99.90;;;;;;7360541;32;20126;-65
2022/09/14 04:16:20;;;;;;;16.12;5.20;;;14.50;99.90;;;;;;7367636;32;20206;-64
2022/09/14 04:20:22;;;;;;;12.05;5.03;;;14.40;99.90;;;;;;7366735;32;20205;-64
2022/09/14 04:24:24;;;;;;;17.52;4.82;;;14.50;99.90;;;;;;7365409;32;20216;-64
2022/09/14 04:28:31;;;;;;;10.95;4.15;;;14.40;99.90;;;;;;7366181;32;20123;-64
2022/09/14 04:32:33;;;;;;;11.10;4.90;;;14.40;99.90;;;;;;7370215;32;20179;-68
2022/09/14 04:36:35;;;;;;;11.88;4.75;;;14.40;99.90;;;;;;7354900;32;20129;-67
2022/09/14 04:40:40;;;;;;;7.78;4.15;;;14.40;99.90;;;;;;7367708;32;20095;-64
2022/09/14 04:44:42;;;;;;;8.80;3.72;;;14.40;99.90;;;;;;7359025;32;20203;-64
2022/09/14 04:48:43;;;;;;;11.07;3.78;;;14.40;99.90;;;;;;7355661;32;20117;-63
2022/09/14 04:52:45;;;;;;;9.80;4.00;;;14.40;99.90;;;;;;7363730;32;20124;-64
2022/09/14 04:56:47;;;;;;;11.40;4.75;;;14.40;99.90;;;;;;7369306;32;20463;-63
2022/09/14 05:00:48;;;;;;;41.70;29.63;;;14.40;99.90;;;;;;7365102;32;20122;-63
2022/09/14 05:04:50;;;;;;;8.65;3.70;;;14.40;99.90;;;;;;7361362;32;20111;-65
2022/09/14 05:08:53;;;;;;;10.23;3.65;;;14.40;99.90;;;;;;7363592;32;20103;-68
2022/09/14 05:12:54;;;;;;;8.65;3.15;;;14.40;99.90;;;;;;7368179;32;20606;-68
2022/09/14 05:17:00;;;;;;;12.95;3.50;;;14.30;99.90;;;;;;7361567;32;20137;-68
2022/09/14 05:21:05;;;;;;;9.27;3.58;;;14.30;99.90;;;;;;7363838;32;20610;-68
2022/09/14 05:25:09;;;;;;;13.50;4.60;;;14.20;99.90;;;;;;7362553;32;20225;-69
2022/09/14 05:29:13;;;;;;;10.50;3.65;;;14.20;99.90;;;;;;7368022;32;20103;-68
2022/09/14 05:33:14;;;;;;;14.60;3.58;;;14.30;99.90;;;;;;7366721;32;20250;-68
2022/09/14 05:37:16;;;;;;;12.07;2.92;;;14.10;99.90;;;;;;7368523;32;20449;-68
2022/09/14 05:41:18;;;;;;;12.18;3.50;;;14.10;99.90;;;;;;7365116;32;20099;-68
2022/09/14 05:45:19;;;;;;;10.18;3.25;;;14.10;99.90;;;;;;7359537;32;20099;-68
2022/09/14 05:49:21;;;;;;;11.68;3.10;;;14.10;99.90;;;;;;7363684;32;20107;-68
2022/09/14 05:53:23;;;;;;;10.93;4.80;;;14.00;99.90;;;;;;7368281;32;20108;-65
2022/09/14 05:57:24;;;;;;;10.35;2.67;;;14.00;99.90;;;;;;7369245;32;20194;-65
2022/09/14 06:01:29;;;;;;;12.57;2.97;;;14.10;99.90;;;;;;7361648;32;20569;-65
2022/09/14 06:05:31;;;;;;;12.10;3.25;;;14.00;99.90;;;;;;7372354;32;20106;-65
2022/09/14 06:09:33;;;;;;;9.63;2.80;;;14.10;99.90;;;;;;7362531;32;20092;-65
2022/09/14 06:13:36;;;;;;;11.48;3.00;;;14.10;99.90;;;;;;7365836;32;20212;-65
2022/09/14 06:17:38;;;;;;;6.78;2.47;;;14.10;99.90;;;;;;7357577;32;20237;-65
2022/09/14 06:21:40;;;;;;;9.77;2.85;;;13.90;99.90;;;;;;7376760;32;20103;-65
2022/09/14 06:25:42;;;;;;;7.18;2.80;;;13.90;99.90;;;;;;7368042;32;20107;-65
2022/09/14 06:29:43;;;;;;;11.40;2.78;;;13.90;99.90;;;;;;7372812;32;20133;-65
2022/09/14 06:33:46;;;;;;;12.25;3.22;;;13.80;99.90;;;;;;7367998;32;20131;-65
2022/09/14 06:37:48;;;;;;;12.13;4.55;;;13.90;99.90;;;;;;7374946;32;20555;-65
2022/09/14 06:41:50;;;;;;;10.68;4.15;;;13.90;99.90;;;;;;7366108;32;20099;-65
2022/09/14 06:46:03;;;;;;;12.93;4.57;;;13.90;99.90;;;;;;7368384;32;20445;-65
2022/09/14 06:50:06;;;;;;;13.18;5.62;;;13.90;99.90;;;;;;7375210;32;20190;-64
2022/09/14 06:54:10;;;;;;;12.18;5.28;;;13.90;99.90;;;;;;7373312;32;20102;-64
2022/09/14 06:58:12;;;;;;;10.77;5.18;;;14.00;99.90;;;;;;7365768;32;20505;-65
2022/09/14 07:02:15;;;;;;;9.45;5.35;;;14.00;99.90;;;;;;7363207;32;20160;-65
2022/09/14 07:06:23;;;;;;;14.98;6.85;;;14.10;99.90;;;;;;7367217;32;20133;-65
2022/09/14 07:10:27;;;;;;;8.85;6.40;;;14.10;99.90;;;;;;7373797;32;20114;-65
2022/09/14 07:14:28;;;;;;;11.30;7.20;;;14.10;99.90;;;;;;7368080;32;20098;-63
2022/09/14 07:18:34;;;;;;;12.35;7.55;;;14.10;99.90;;;;;;7366320;32;20570;-63
2022/09/14 07:22:36;;;;;;;15.02;8.07;;;14.10;99.90;;;;;;7369970;32;20133;-63
2022/09/14 07:26:40;;;;;;;12.18;7.87;;;14.10;99.90;;;;;;7367626;32;20121;-64
2022/09/14 07:30:42;;;;;;;12.63;8.05;;;14.10;99.90;;;;;;7369208;32;20121;-63
2022/09/14 07:34:44;;;;;;;10.63;7.97;;;14.20;99.90;;;;;;7370795;32;20602;-63
2022/09/14 07:38:45;;;;;;;11.93;8.23;;;14.10;99.90;;;;;;7370015;32;20216;-64
2022/09/14 07:43:01;;;;;;;9.05;7.37;;;14.10;99.90;;;;;;7373533;32;20119;-63
2022/09/14 07:47:03;;;;;;;8.15;6.87;;;14.10;99.90;;;;;;7366356;32;20118;-63
2022/09/14 07:51:09;;;;;;;10.93;8.35;;;14.10;99.90;;;;;;7375915;32;20194;-63
2022/09/14 07:55:11;;;;;;;11.10;7.03;;;14.10;99.90;;;;;;7364001;32;20628;-63
2022/09/14 07:59:14;;;;;;;11.98;6.68;;;14.10;99.90;;;;;;7358505;32;20972;-63
2022/09/14 08:03:36;;;;;;;11.38;6.85;;;14.20;99.90;;;;;;7364630;32;20282;-63
2022/09/14 08:07:38;;;;;;;9.00;6.18;;;14.20;99.90;;;;;;7362307;32;20198;-63
2022/09/14 08:11:39;;;;;;;6.82;5.57;;;14.10;99.90;;;;;;7370500;32;20575;-63
2022/09/14 08:15:41;;;;;;;8.32;5.97;;;14.10;99.90;;;;;;7359994;32;20365;-63
2022/09/14 08:19:42;;;;;;;9.70;8.48;;;14.10;99.90;;;;;;7367076;32;20107;-63
2022/09/14 08:23:44;;;;;;;12.75;8.40;;;14.10;99.90;;;;;;7371557;32;20198;-63
2022/09/14 08:27:46;;;;;;;10.88;9.10;;;14.10;99.90;;;;;;7373312;32;20182;-63
2022/09/14 08:31:50;;;;;;;10.90;8.27;;;14.10;99.90;;;;;;7369128;32;20122;-63
2022/09/14 08:35:52;;;;;;;14.60;10.43;;;14.20;99.90;;;;;;7373482;32;20130;-63
2022/09/14 08:39:58;;;;;;;12.55;9.65;;;14.20;99.90;;;;;;7361865;32;20209;-63
2022/09/14 08:44:27;;;;;;;12.18;10.18;;;14.30;99.90;;;;;;7375254;32;20513;-63
2022/09/14 08:48:31;;;;;;;;;;;14.20;99.90;;;;;;7372737;32;20536;-63
2022/09/14 08:52:43;;;;;;;10.98;9.88;;;14.30;99.90;;;;;;7371993;32;20097;-63
2022/09/14 08:56:52;;;;;;;10.60;9.13;;;14.30;99.90;;;;;;7359961;32;20116;-63
2022/09/14 09:01:06;;;;;;;9.65;8.63;;;14.20;99.90;;;;;;7371392;32;20111;-63
2022/09/14 09:05:48;;;;;;;11.18;8.75;;;14.20;99.90;;;;;;7370401;32;20511;-63
2022/09/14 09:09:55;;;;;;;9.40;8.50;;;14.20;99.90;;;;;;7370463;32;20095;-64
2022/09/14 09:13:57;;;;;;;10.57;8.30;;;14.20;99.90;;;;;;7372260;32;20217;-63
2022/09/14 09:18:15;;;;;;;9.45;8.55;;;14.30;99.90;;;;;;7371613;32;20475;-63
2022/09/14 09:22:22;;;;;;;9.70;8.70;;;14.30;99.90;;;;;;7368831;32;20122;-63
2022/09/14 09:26:29;;;;;;;9.68;8.15;;;14.30;99.90;;;;;;7369959;32;20099;-63
2022/09/14 09:30:31;;;;;;;10.25;9.05;;;14.30;99.90;;;;;;7362598;32;20129;-63
2022/09/14 09:34:34;;;;;;;13.10;8.20;;;14.40;99.90;;;;;;7363531;32;20114;-64
2022/09/14 09:38:36;;;;;;;9.02;8.10;;;14.50;99.90;;;;;;7372704;32;20212;-64
2022/09/14 09:43:11;;;;;;;8.85;7.93;;;14.50;99.90;;;;;;7364715;32;20103;-64
2022/09/14 09:47:12;;;;;;;9.18;8.32;;;14.50;99.90;;;;;;7370220;32;20130;-64
2022/09/14 09:51:27;;;;;;;10.13;8.40;;;14.40;99.90;;;;;;7370342;32;20110;-64
2022/09/14 09:55:35;;;;;;;7.97;7.18;;;14.40;99.90;;;;;;7372055;32;20123;-64
2022/09/14 09:59:39;;;;;;;10.25;8.07;;;14.40;99.90;;;;;;7373752;32;20114;-64
2022/09/14 10:03:41;;;;;;;8.65;6.93;;;14.40;99.90;;;;;;7375175;32;20690;-63
2022/09/14 10:07:49;;;;;;;9.50;7.07;;;14.40;99.90;;;;;;7367259;32;20174;-64
2022/09/14 10:12:02;;;;;;;11.73;8.07;;;14.30;99.90;;;;;;7365188;32;20431;-64
2022/09/14 10:16:14;;;;;;;8.73;7.78;;;14.30;99.90;;;;;;7373232;32;20144;-64
2022/09/14 10:20:23;;;;;;;9.70;8.52;;;14.30;99.90;;;;;;7366754;32;20115;-64
2022/09/14 10:24:26;;;;;;;7.60;6.85;;;14.50;99.90;;;;;;7370215;32;20474;-64
2022/09/14 10:28:30;;;;;;;8.35;7.43;;;14.60;99.90;;;;;;7368049;32;20111;-64
2022/09/14 10:32:33;;;;;;;8.00;6.55;;;14.60;99.90;;;;;;7375550;32;20519;-64
2022/09/14 10:36:46;;;;;;;7.45;6.30;;;14.70;99.90;;;;;;7371645;32;20125;-64
2022/09/14 10:40:59;;;;;;;7.18;5.87;;;14.70;99.90;;;;;;7372769;32;20110;-64
2022/09/14 10:45:24;;;;;;;7.40;5.40;;;14.70;99.90;;;;;;7369969;32;20144;-64
2022/09/14 10:49:32;;;;;;;8.52;5.70;;;14.60;99.90;;;;;;7371714;32;20205;-63
2022/09/14 10:54:07;;;;;;;5.82;4.55;;;14.60;99.90;;;;;;7368259;32;20198;-63
2022/09/14 10:58:23;;;;;;;6.07;4.82;;;14.60;99.90;;;;;;7369646;32;20541;-63
2022/09/14 11:02:51;;;;;;;6.50;5.07;;;14.50;99.90;;;;;;7375458;32;20195;-64
2022/09/14 11:06:58;;;;;;;7.97;6.62;;;14.40;99.90;;;;;;7363450;32;20133;-64
2022/09/14 11:11:18;;;;;;;;;;;14.40;99.90;;;;;;7374636;32;20746;-64
2022/09/14 11:15:29;;;;;;;8.02;6.80;;;14.40;99.90;;;;;;7363829;32;20436;-64
2022/09/14 11:19:50;;;;;;;10.05;6.60;;;14.40;99.90;;;;;;7373776;32;20511;-65
2022/09/14 11:23:57;;;;;;;5.85;3.90;;;14.40;99.90;;;;;;7373355;32;20139;-64
2022/09/14 11:28:10;;;;;;;;;;;14.50;99.90;;;;;;7371187;32;20099;-64
2022/09/14 11:32:36;;;;;;;13.48;9.75;;;14.30;99.90;;;;;;7368796;32;20447;-65
2022/09/14 11:37:00;;;;;;;5.65;4.10;;;14.40;99.90;;;;;;7366903;32;20155;-65
2022/09/14 11:41:31;;;;;;;6.78;3.95;;;14.40;99.90;;;;;;7364802;32;20241;-64
2022/09/14 11:45:46;;;;;;;6.12;4.60;;;14.60;99.90;;;;;;7367478;32;20103;-64
2022/09/14 11:50:00;;;;;;;3.85;3.00;;;14.70;99.90;;;;;;7371609;32;20140;-64
2022/09/14 11:54:08;;;;;;;5.15;2.95;;;14.70;99.90;;;;;;7371072;32;20218;-64
2022/09/14 11:58:20;;;;;;;8.55;4.05;;;14.80;99.90;;;;;;7366113;32;20131;-64
2022/09/14 12:02:22;;;;;;;2.22;1.60;;;14.70;99.90;;;;;;7368996;32;20137;-64
2022/09/14 12:06:29;;;;;;;2.50;1.60;;;14.50;99.90;;;;;;7371047;32;20160;-64
2022/09/14 12:10:58;;;;;;;3.80;2.05;;;14.30;99.90;;;;;;7373900;32;20103;-64
2022/09/14 12:15:00;;;;;;;3.33;2.30;;;14.30;99.90;;;;;;7375930;32;20107;-65
2022/09/14 12:19:02;;;;;;;4.37;2.33;;;14.20;99.90;;;;;;7368031;32;20558;-64
2022/09/14 12:23:41;;;;;;;4.05;2.58;;;14.30;99.90;;;;;;7375176;32;20121;-64
2022/09/14 12:27:43;;;;;;;;;;;14.20;99.90;;;;;;7360864;32;20535;-64
2022/09/14 12:31:48;;;;;;;5.37;2.50;;;14.20;99.90;;;;;;7369389;32;20458;-64
2022/09/14 12:35:50;;;;;;;4.50;2.40;;;14.20;99.90;;;;;;7370255;32;20750;-64
2022/09/14 12:40:21;;;;;;;4.87;2.53;;;14.20;99.90;;;;;;7375089;32;20120;-64
2022/09/14 12:44:37;;;;;;;5.50;2.95;;;14.30;99.90;;;;;;7370995;32;20136;-64
2022/09/14 12:48:45;;;;;;;3.12;2.37;;;14.40;99.90;;;;;;7371818;32;20111;-64
2022/09/14 12:52:56;;;;;;;4.18;2.60;;;14.40;99.90;;;;;;7374262;32;20212;-64
2022/09/14 12:57:24;;;;;;;5.20;2.42;;;14.50;99.90;;;;;;7368834;32;20098;-64
2022/09/14 13:01:48;;;;;;;3.55;3.10;;;14.50;99.90;;;;;;7363287;32;20563;-64
2022/09/14 13:05:50;;;;;;;3.53;2.70;;;14.50;99.90;;;;;;7371841;32;20183;-64
2022/09/14 13:09:54;;;;;;;3.40;2.70;;;14.50;99.90;;;;;;7363105;32;20103;-63
2022/09/14 13:13:57;;;;;;;7.62;3.28;;;14.50;99.90;;;;;;7364167;32;20099;-63
2022/09/14 13:18:02;;;;;;;6.15;3.20;;;14.50;99.90;;;;;;7367002;32;20095;-65
2022/09/14 13:22:17;;;;;;;6.57;3.10;;;14.50;99.90;;;;;;7370031;32;20107;-64
2022/09/14 13:26:24;;;;;;;4.50;2.62;;;14.50;99.90;;;;;;7369667;32;20757;-64
2022/09/14 13:30:27;;;;;;;4.93;2.80;;;14.50;99.90;;;;;;7367914;32;20515;-66
2022/09/14 13:34:33;;;;;;;4.57;2.60;;;14.40;99.90;;;;;;7374272;32;20168;-64
2022/09/14 13:38:36;;;;;;;3.10;1.60;;;14.30;99.90;;;;;;7356862;32;20130;-64
2022/09/14 13:42:39;;;;;;;2.67;1.40;;;14.20;99.90;;;;;;7360612;32;20448;-64
2022/09/14 13:46:42;;;;;;;6.65;1.60;;;14.30;99.90;;;;;;7360616;32;20118;-63
2022/09/14 13:50:47;;;;;;;1.83;1.37;;;14.30;99.90;;;;;;7369566;32;20463;-64
2022/09/14 13:54:52;;;;;;;2.62;2.22;;;14.20;99.90;;;;;;7366839;32;20111;-64
2022/09/14 13:59:17;;;;;;;4.00;1.80;;;14.30;99.90;;;;;;7365722;32;20243;-64
2022/09/14 14:03:31;;;;;;;3.90;1.70;;;14.40;99.90;;;;;;7360514;32;20142;-63
2022/09/14 14:07:35;;;;;;;4.35;2.20;;;14.30;99.90;;;;;;7359092;32;20206;-63
2022/09/14 14:11:40;;;;;;;3.85;1.62;;;14.30;99.90;;;;;;7366866;32;20210;-63
2022/09/14 14:15:42;;;;;;;3.40;1.60;;;14.40;99.90;;;;;;7367992;32;20166;-64
2022/09/14 14:19:45;;;;;;;3.97;1.90;;;14.50;99.90;;;;;;7367289;32;20149;-64
2022/09/14 14:23:47;;;;;;;4.82;2.95;;;14.70;99.90;;;;;;7379115;32;20129;-64
2022/09/14 14:28:21;;;;;;;3.42;1.65;;;14.70;99.90;;;;;;7365404;32;20104;-64
2022/09/14 14:32:23;;;;;;;3.28;2.03;;;14.70;99.90;;;;;;7363197;32;20133;-64
2022/09/14 14:36:25;;;;;;;3.60;2.00;;;14.60;99.90;;;;;;7357527;32;20139;-64
2022/09/14 14:40:27;;;;;;;3.92;1.77;;;14.70;99.90;;;;;;7365222;32;20289;-64
2022/09/14 14:44:29;;;;;;;5.07;1.90;;;14.70;99.90;;;;;;7362856;32;20141;-64
2022/09/14 14:48:30;;;;;;;3.10;1.83;;;14.70;99.90;;;;;;7363691;32;20152;-64
2022/09/14 14:52:32;;;;;;;2.17;1.50;;;14.80;99.90;;;;;;7368504;32;20143;-64
2022/09/14 14:56:34;;;;;;;3.83;2.20;;;15.00;99.90;;;;;;7370181;32;20677;-65
2022/09/14 15:00:37;;;;;;;6.65;2.28;;;15.10;99.90;;;;;;7374355;32;20119;-63
2022/09/14 15:04:38;;;;;;;4.07;3.10;;;15.10;99.90;;;;;;7371267;32;20141;-63
2022/09/14 15:08:41;;;;;;;10.55;3.58;;;15.00;99.90;;;;;;7365959;32;20553;-63
2022/09/14 15:12:43;;;;;;;5.12;3.08;;;15.10;99.90;;;;;;7375434;32;20741;-63
2022/09/14 15:16:45;;;;;;;4.95;3.90;;;15.10;99.90;;;;;;7371588;32;20137;-63
2022/09/14 15:20:47;;;;;;;5.47;4.37;;;15.00;99.90;;;;;;7362601;32;20247;-63
2022/09/14 15:24:48;;;;;;;5.82;3.87;;;15.10;99.90;;;;;;7365824;32;20123;-63
2022/09/14 15:28:51;;;;;;;8.23;3.35;;;15.40;99.90;;;;;;7373765;32;20835;-64
2022/09/14 15:32:53;;;;;;;3.78;2.55;;;15.60;99.90;;;;;;7377714;32;20137;-63
2022/09/14 15:36:56;;;;;;;3.15;2.17;;;15.50;99.90;;;;;;7370064;32;20141;-64
2022/09/14 15:40:57;;;;;;;3.28;1.70;;;15.50;99.90;;;;;;7361463;32;20111;-64
2022/09/14 15:44:59;;;;;;;4.72;1.35;;;15.50;99.90;;;;;;7364882;32;20615;-63
2022/09/14 15:49:06;;;;;;;5.20;1.33;;;15.50;99.90;;;;;;7359022;32;20765;-63
2022/09/14 15:53:10;;;;;;;6.00;1.52;;;15.40;99.90;;;;;;7363912;32;20167;-64
2022/09/14 15:57:12;;;;;;;3.17;1.62;;;15.40;99.90;;;;;;7362785;32;20549;-64
2022/09/14 16:01:15;;;;;;;4.47;1.48;;;15.40;99.90;;;;;;7362733;32;20217;-63
2022/09/14 16:05:17;;;;;;;3.95;1.60;;;15.30;99.90;;;;;;7362549;32;20525;-64
2022/09/14 16:09:21;;;;;;;5.05;1.55;;;15.20;99.90;;;;;;7371461;32;20222;-64
2022/09/14 16:13:23;;;;;;;6.32;1.50;;;15.30;99.90;;;;;;7362681;32;20218;-63
2022/09/14 16:17:24;;;;;;;2.05;1.27;;;15.20;99.90;;;;;;7365570;32;20211;-63
2022/09/14 16:21:26;;;;;;;4.60;1.30;;;15.10;99.90;;;;;;7366324;32;20194;-63
2022/09/14 16:25:28;;;;;;;5.00;1.67;;;15.10;99.90;;;;;;7366220;32;20127;-63
2022/09/14 16:29:30;;;;;;;3.65;2.05;;;15.10;99.90;;;;;;7365204;32;20141;-63
2022/09/14 16:33:36;;;;;;;4.93;2.15;;;15.00;99.90;;;;;;7362250;32;20119;-63
2022/09/14 16:37:37;;;;;;;4.05;1.90;;;14.90;99.90;;;;;;7360199;32;20313;-64
2022/09/14 16:41:41;;;;;;;4.68;1.85;;;14.80;99.90;;;;;;7370557;32;20107;-63
2022/09/14 16:45:42;;;;;;;4.05;2.00;;;14.80;99.90;;;;;;7364602;32;20107;-62
2022/09/14 16:49:44;;;;;;;4.62;2.30;;;14.80;99.90;;;;;;7366292;32;20112;-63
2022/09/14 16:53:47;;;;;;;6.20;2.30;;;14.70;99.90;;;;;;7362392;32;20145;-66
2022/09/14 16:57:48;;;;;;;6.07;2.85;;;14.70;99.90;;;;;;7365810;32;20561;-63
2022/09/14 17:01:50;;;;;;;5.28;3.55;;;14.60;99.90;;;;;;7365677;32;20130;-63
2022/09/14 17:06:04;;;;;;;6.93;3.37;;;14.60;99.90;;;;;;7364246;32;20154;-63
2022/09/14 17:10:05;;;;;;;5.12;3.20;;;14.60;99.90;;;;;;7358580;32;20217;-62
2022/09/14 17:14:12;;;;;;;6.35;4.40;;;14.50;99.90;;;;;;7357429;32;20216;-63
2022/09/14 17:18:14;;;;;;;8.52;6.00;;;14.50;99.90;;;;;;7368844;32;20110;-65
2022/09/14 17:22:15;;;;;;;10.00;5.70;;;14.50;99.90;;;;;;7368076;32;20605;-66
2022/09/14 17:26:19;;;;;;;10.55;6.05;;;14.50;99.90;;;;;;7364167;32;20210;-65
2022/09/14 17:30:20;;;;;;;11.60;8.07;;;14.40;99.90;;;;;;7362864;32;20153;-66
2022/09/14 17:34:22;;;;;;;12.82;7.85;;;14.40;99.90;;;;;;7357412;32;20115;-65
2022/09/14 17:38:26;;;;;;;9.65;8.10;;;14.40;99.90;;;;;;7362977;32;20487;-65
2022/09/14 17:42:28;;;;;;;11.00;7.97;;;14.40;99.90;;;;;;7359034;32;20518;-64
2022/09/14 17:46:30;;;;;;;11.38;9.93;;;14.30;99.90;;;;;;7365425;32;20115;-65
2022/09/14 17:50:32;;;;;;;19.73;15.05;;;14.30;99.90;;;;;;7365367;32;20107;-65
2022/09/14 17:54:34;;;;;;;18.98;14.45;;;14.30;99.90;;;;;;7358487;32;20648;-64
2022/09/14 17:58:36;;;;;;;16.08;13.20;;;14.10;99.90;;;;;;7364157;32;20159;-64
2022/09/14 18:02:38;;;;;;;17.33;15.02;;;14.10;99.90;;;;;;7361296;32;20194;-61
2022/09/14 18:06:42;;;;;;;20.42;14.73;;;13.90;99.90;;;;;;7361492;32;20414;-62
2022/09/14 18:10:44;;;;;;;22.58;15.02;;;14.00;99.90;;;;;;7354319;32;20189;-61
2022/09/14 18:14:46;;;;;;;20.98;14.82;;;14.00;99.90;;;;;;7355016;32;20197;-62
2022/09/14 18:18:48;;;;;;;19.80;15.85;;;13.90;99.90;;;;;;7357070;32;20221;-62
2022/09/14 18:22:50;;;;;;;18.30;14.60;;;13.90;99.90;;;;;;7366482;32;20107;-62
2022/09/14 18:26:51;;;;;;;21.85;15.52;;;13.80;99.90;;;;;;7364965;32;20114;-61
2022/09/14 18:31:01;;;;;;;20.75;14.68;;;13.80;99.90;;;;;;7365217;32;20138;-62
2022/09/14 18:35:03;;;;;;;20.05;15.13;;;13.80;99.90;;;;;;7377048;32;20176;-61
2022/09/14 18:39:04;;;;;;;20.00;15.13;;;13.80;99.90;;;;;;7364847;32;20119;-62
2022/09/14 18:43:06;;;;;;;16.83;13.40;;;13.80;99.90;;;;;;7364694;32;20106;-63
2022/09/14 18:47:08;;;;;;;21.90;14.80;;;13.70;99.90;;;;;;7369364;32;20250;-62
2022/09/14 18:51:11;;;;;;;22.02;15.65;;;13.70;99.90;;;;;;7370455;32;20134;-62
2022/09/14 18:55:14;;;;;;;20.88;14.82;;;13.70;99.90;;;;;;7368398;32;20102;-62
2022/09/14 18:59:15;;;;;;;21.60;15.77;;;13.60;99.90;;;;;;7366782;32;20107;-62
2022/09/14 19:03:17;;;;;;;19.60;14.60;;;13.50;99.90;;;;;;7358134;32;20127;-60
2022/09/14 19:07:18;;;;;;;21.40;14.45;;;13.50;99.90;;;;;;7360442;32;20652;-63
2022/09/14 19:11:25;;;;;;;17.55;13.80;;;13.50;99.90;;;;;;7361447;32;20116;-62
2022/09/14 19:15:27;;;;;;;22.33;14.30;;;13.50;99.90;;;;;;7369856;32;20566;-63
2022/09/14 19:19:33;;;;;;;18.85;14.70;;;13.50;99.90;;;;;;7372795;32;21691;-63
2022/09/14 19:23:35;;;;;;;22.98;15.05;;;13.40;99.90;;;;;;7363456;32;20131;-63
2022/09/14 19:27:37;;;;;;;25.27;16.23;;;13.40;99.90;;;;;;7366795;32;20143;-64
2022/09/14 19:31:38;;;;;;;24.17;15.73;;;13.40;99.90;;;;;;7372131;32;20159;-65
2022/09/14 19:35:40;;;;;;;19.67;15.70;;;13.30;99.90;;;;;;7373528;32;20179;-64
2022/09/14 19:39:42;;;;;;;22.02;15.65;;;13.30;99.90;;;;;;7363242;32;20107;-65
2022/09/14 19:43:44;;;;;;;21.80;15.40;;;13.40;99.90;;;;;;7365968;32;20126;-64
2022/09/14 19:47:45;;;;;;;20.15;15.93;;;13.30;99.90;;;;;;7365238;32;20116;-62
2022/09/14 19:51:47;;;;;;;19.70;15.00;;;13.30;99.90;;;;;;7361631;32;20095;-64
2022/09/14 19:55:49;;;;;;;23.67;15.43;;;13.20;99.90;;;;;;7364409;32;20115;-65
2022/09/14 19:59:51;;;;;;;21.00;15.13;;;13.20;99.90;;;;;;7364089;32;20130;-64
2022/09/14 20:03:53;;;;;;;23.52;16.05;;;13.20;99.90;;;;;;7362482;32;20111;-65
2022/09/14 20:07:55;;;;;;;18.62;14.80;;;13.10;99.90;;;;;;7361179;32;20111;-65
2022/09/14 20:11:57;;;;;;;24.90;15.30;;;13.10;99.90;;;;;;7365352;32;20428;-61
2022/09/14 20:15:58;;;;;;;24.50;16.23;;;13.10;99.90;;;;;;7360879;32;20275;-64
2022/09/14 20:20:00;;;;;;;28.95;16.10;;;13.00;99.90;;;;;;7363128;32;20170;-63
2022/09/14 20:24:04;;;;;;;18.70;13.82;;;13.00;99.90;;;;;;7366639;32;20119;-64
2022/09/14 20:28:17;;;;;;;18.77;14.68;;;13.00;99.90;;;;;;7367643;32;20148;-62
2022/09/14 20:32:19;;;;;;;20.00;14.55;;;12.90;99.90;;;;;;7367867;32;20234;-64
2022/09/14 20:36:23;;;;;;;20.12;13.77;;;12.80;99.90;;;;;;7367496;32;20120;-63
2022/09/14 20:40:25;;;;;;;18.15;13.57;;;12.80;99.90;;;;;;7362050;32;20209;-63
2022/09/14 20:44:27;;;;;;;17.75;13.55;;;12.80;99.90;;;;;;7360725;32;20120;-63
2022/09/14 20:48:29;;;;;;;22.30;13.23;;;12.70;99.90;;;;;;7359058;32;20145;-63
2022/09/14 20:52:31;;;;;;;18.30;13.60;;;12.60;99.90;;;;;;7360288;32;20574;-63
2022/09/14 20:56:34;;;;;;;17.62;13.55;;;12.50;99.90;;;;;;7364885;32;20117;-64
2022/09/14 21:00:36;;;;;;;17.60;12.80;;;12.50;99.90;;;;;;7358059;32;20799;-63
2022/09/14 21:04:37;;;;;;;17.33;12.35;;;12.40;99.90;;;;;;7369579;32;20112;-64
2022/09/14 21:08:40;;;;;;;18.52;13.02;;;12.30;99.90;;;;;;7360868;32;20131;-63